Time;durP1;ratioP1;P1;durP2;ratioP2;P2;SDS_P1;SDS_P2;PMS_P1;PMS_P2;Temp;Humidity;BMP_temperature;BMP_pressure;BME280_temperature;BME280_humidity;BME280_pressure;Samples;Min_cycle;Max_cycle;Signal;HPM_P1;HPM_P2
2023/03/16 00:02:03;;;;;;;6.23;2.87;;;2.90;99.90;;;;;;5051057;28;20198;-46
2023/03/16 00:04:30;;;;;;;4.50;2.30;;;2.80;99.90;;;;;;5052339;28;20216;-48
2023/03/16 00:06:57;;;;;;;2.93;1.87;;;2.80;99.90;;;;;;5050693;28;20195;-46
2023/03/16 00:09:30;;;;;;;3.70;1.77;;;2.70;99.90;;;;;;5052130;28;20208;-47
2023/03/16 00:11:57;;;;;;;4.23;3.90;;;2.70;99.90;;;;;;5044484;28;20294;-48
2023/03/16 00:14:26;;;;;;;7.60;6.83;;;2.70;99.90;;;;;;5047346;28;20251;-46
2023/03/16 00:16:53;;;;;;;6.23;5.67;;;2.60;99.90;;;;;;5049514;28;20639;-47
2023/03/16 00:19:21;;;;;;;5.13;3.63;;;2.60;99.90;;;;;;5052481;28;20199;-47
2023/03/16 00:21:50;;;;;;;3.57;3.00;;;2.50;99.90;;;;;;5052203;28;20670;-47
2023/03/16 00:24:18;;;;;;;4.33;3.27;;;2.50;99.90;;;;;;5052608;28;20226;-46
2023/03/16 00:26:45;;;;;;;3.20;2.33;;;2.50;99.90;;;;;;5051294;28;20291;-54
2023/03/16 00:29:12;;;;;;;2.13;1.73;;;2.50;99.90;;;;;;5051761;28;20252;-47
2023/03/16 00:31:42;;;;;;;6.20;2.10;;;2.40;99.90;;;;;;5051793;28;20204;-46
2023/03/16 00:34:10;;;;;;;2.37;1.70;;;2.40;99.90;;;;;;5053157;28;20221;-46
2023/03/16 00:36:37;;;;;;;3.13;2.80;;;2.40;99.90;;;;;;5064341;28;20213;-46
2023/03/16 00:39:05;;;;;;;7.53;6.77;;;2.40;99.90;;;;;;5052216;28;20208;-47
2023/03/16 00:41:36;;;;;;;9.13;5.03;;;2.40;99.90;;;;;;5051242;28;20271;-54
2023/03/16 00:44:03;;;;;;;8.97;6.63;;;2.50;99.90;;;;;;5049944;28;20222;-46
2023/03/16 00:46:31;;;;;;;7.00;6.33;;;2.50;99.90;;;;;;5050710;28;20273;-46
2023/03/16 00:49:01;;;;;;;4.00;3.80;;;2.40;99.90;;;;;;5052059;28;20198;-47
2023/03/16 00:51:29;;;;;;;6.13;5.53;;;2.40;99.90;;;;;;5052410;28;20207;-46
2023/03/16 00:53:56;;;;;;;6.10;5.70;;;2.30;99.90;;;;;;5043159;28;20223;-47
2023/03/16 00:56:23;;;;;;;5.47;4.43;;;2.30;99.90;;;;;;5050276;28;20273;-46
2023/03/16 00:58:56;;;;;;;3.30;3.10;;;2.30;99.90;;;;;;5051767;28;20257;-47
2023/03/16 01:01:23;;;;;;;3.40;3.20;;;2.30;99.90;;;;;;5050012;28;20210;-47
2023/03/16 01:03:50;;;;;;;4.13;3.47;;;2.30;99.90;;;;;;5043203;28;20310;-46
2023/03/16 01:06:20;;;;;;;4.23;3.23;;;2.20;99.90;;;;;;5044913;28;20287;-46
2023/03/16 01:08:48;;;;;;;3.63;3.33;;;2.20;99.90;;;;;;5050615;28;20199;-47
2023/03/16 01:11:17;;;;;;;2.97;2.23;;;2.20;99.90;;;;;;5050453;28;20265;-48
2023/03/16 01:13:46;;;;;;;5.00;4.00;;;2.20;99.90;;;;;;5050880;28;20717;-46
2023/03/16 01:16:13;;;;;;;11.13;9.87;;;2.20;99.90;;;;;;5051805;28;20383;-46
2023/03/16 01:18:41;;;;;;;13.93;11.77;;;2.20;99.90;;;;;;5049100;28;20206;-47
2023/03/16 01:21:12;;;;;;;10.60;9.40;;;2.20;99.90;;;;;;5045165;28;20273;-47
2023/03/16 01:23:42;;;;;;;9.70;8.80;;;2.30;99.90;;;;;;5051558;28;20605;-47
2023/03/16 01:26:10;;;;;;;8.80;8.00;;;2.30;99.90;;;;;;5050691;28;20409;-46
2023/03/16 01:28:37;;;;;;;13.27;11.70;;;2.30;99.90;;;;;;5049052;28;20203;-47
2023/03/16 01:31:07;;;;;;;5.70;4.47;;;2.20;99.90;;;;;;5045274;28;20709;-46
2023/03/16 01:33:35;;;;;;;6.60;6.10;;;2.10;99.90;;;;;;5050682;28;20286;-46
2023/03/16 01:36:05;;;;;;;9.50;8.57;;;2.10;99.90;;;;;;5053510;28;20195;-46
2023/03/16 01:38:32;;;;;;;5.20;4.73;;;2.00;99.90;;;;;;5055312;28;20272;-46
2023/03/16 01:41:01;;;;;;;6.57;5.97;;;2.10;99.90;;;;;;5055277;28;20203;-46
2023/03/16 01:43:29;;;;;;;9.07;8.23;;;2.10;99.90;;;;;;5052326;28;20276;-48
2023/03/16 01:46:22;;;;;;;3.30;2.60;;;2.00;99.90;;;;;;5050903;28;20223;-47
2023/03/16 01:49:05;;;;;;;4.30;2.73;;;1.90;99.90;;;;;;5054204;28;20203;-46
2023/03/16 01:51:36;;;;;;;6.50;3.93;;;1.80;99.90;;;;;;5055233;28;20281;-46
2023/03/16 01:54:09;;;;;;;8.37;7.67;;;1.70;99.90;;;;;;5044937;28;20223;-48
2023/03/16 01:56:43;;;;;;;2.97;2.77;;;1.70;99.90;;;;;;5054268;28;20208;-47
2023/03/16 01:59:15;;;;;;;2.73;2.10;;;1.70;99.90;;;;;;5046100;28;20200;-45
2023/03/16 02:01:42;;;;;;;3.27;2.33;;;1.70;99.90;;;;;;5054669;28;20260;-47
2023/03/16 02:04:26;;;;;;;5.03;4.53;;;1.70;99.90;;;;;;5045565;28;20703;-47
2023/03/16 02:06:55;;;;;;;4.53;4.20;;;1.70;99.90;;;;;;5054293;28;20276;-47
2023/03/16 02:09:24;;;;;;;4.47;4.13;;;1.70;99.90;;;;;;5053878;28;20264;-47
2023/03/16 02:11:54;;;;;;;7.57;6.87;;;1.70;99.90;;;;;;5054766;28;20202;-48
2023/03/16 02:14:23;;;;;;;4.07;3.73;;;1.70;99.90;;;;;;5049991;28;20655;-48
2023/03/16 02:16:51;;;;;;;2.10;2.00;;;1.70;99.90;;;;;;5054716;28;20282;-46
2023/03/16 02:19:29;;;;;;;2.47;1.87;;;1.70;99.90;;;;;;5054740;28;20295;-47
2023/03/16 02:22:03;;;;;;;5.17;4.70;;;1.70;99.90;;;;;;5054452;28;20252;-46
2023/03/16 02:24:31;;;;;;;5.07;4.57;;;1.70;99.90;;;;;;5051970;28;20276;-46
2023/03/16 02:27:03;;;;;;;4.33;3.97;;;1.70;99.90;;;;;;5049229;28;20201;-46
2023/03/16 02:29:54;;;;;;;2.90;2.70;;;1.70;99.90;;;;;;5049601;28;20237;-46
2023/03/16 02:32:23;;;;;;;1.33;1.23;;;1.80;99.90;;;;;;5048497;28;20568;-47
2023/03/16 02:34:50;;;;;;;1.80;1.70;;;1.70;99.90;;;;;;5053829;28;20196;-45
2023/03/16 02:37:17;;;;;;;2.60;2.20;;;1.70;99.90;;;;;;5044997;28;20282;-45
2023/03/16 02:39:44;;;;;;;3.43;2.50;;;1.60;99.90;;;;;;5054256;28;20264;-48
2023/03/16 02:42:15;;;;;;;5.47;1.80;;;1.70;99.90;;;;;;5047758;28;20666;-47
2023/03/16 02:44:46;;;;;;;5.27;4.10;;;1.70;99.90;;;;;;5050742;28;20232;-45
2023/03/16 02:47:22;;;;;;;3.40;2.90;;;1.70;99.90;;;;;;5053383;28;20248;-47
2023/03/16 02:49:48;;;;;;;5.37;2.30;;;1.70;99.90;;;;;;5054405;28;20213;-45
2023/03/16 02:52:15;;;;;;;6.80;6.13;;;1.70;99.90;;;;;;5050554;28;20207;-48
2023/03/16 02:54:42;;;;;;;3.13;2.20;;;1.70;99.90;;;;;;5053625;28;20222;-48
2023/03/16 02:57:09;;;;;;;1.97;1.70;;;1.70;99.90;;;;;;5051521;28;20265;-48
2023/03/16 02:59:36;;;;;;;3.00;2.70;;;1.70;99.90;;;;;;5053724;28;20206;-47
2023/03/16 03:02:05;;;;;;;3.87;2.90;;;1.60;99.90;;;;;;5050405;28;20198;-47
2023/03/16 03:04:32;;;;;;;3.23;2.63;;;1.60;99.90;;;;;;5053113;28;20229;-46
2023/03/16 03:07:03;;;;;;;6.67;3.63;;;1.60;99.90;;;;;;5045160;28;20205;-48
2023/03/16 03:09:32;;;;;;;4.20;3.03;;;1.50;99.90;;;;;;5053532;28;20203;-46
2023/03/16 03:11:59;;;;;;;3.43;1.50;;;1.50;99.90;;;;;;5052614;28;20282;-48
2023/03/16 03:14:27;;;;;;;3.30;1.23;;;1.40;99.90;;;;;;5044973;28;20214;-49
2023/03/16 03:16:55;;;;;;;1.87;1.70;;;1.40;99.90;;;;;;5050472;28;20282;-50
2023/03/16 03:19:23;;;;;;;1.60;1.37;;;1.30;99.90;;;;;;5050582;28;20203;-47
2023/03/16 03:21:55;;;;;;;1.70;1.43;;;1.30;99.90;;;;;;5047545;28;20304;-48
2023/03/16 03:24:22;;;;;;;1.33;1.03;;;1.30;99.90;;;;;;5049144;28;20222;-47
2023/03/16 03:26:50;;;;;;;1.83;1.20;;;1.20;99.90;;;;;;5051750;28;20902;-46
2023/03/16 03:29:18;;;;;;;3.30;1.47;;;1.30;99.90;;;;;;5050605;28;20227;-47
2023/03/16 03:31:45;;;;;;;1.93;1.80;;;1.20;99.90;;;;;;5052877;28;20290;-48
2023/03/16 03:34:12;;;;;;;2.00;0.70;;;1.20;99.90;;;;;;5053021;28;20746;-49
2023/03/16 03:36:41;;;;;;;1.40;1.00;;;1.10;99.90;;;;;;5053143;28;20264;-47
2023/03/16 03:39:08;;;;;;;0.90;0.80;;;1.10;99.90;;;;;;5042207;28;20293;-49
2023/03/16 03:41:35;;;;;;;5.57;1.50;;;1.10;99.90;;;;;;5052921;28;20253;-45
2023/03/16 03:44:04;;;;;;;1.37;1.27;;;1.20;99.90;;;;;;5049935;28;20314;-47
2023/03/16 03:46:30;;;;;;;1.77;1.67;;;1.20;99.90;;;;;;5052709;28;20636;-46
2023/03/16 03:49:02;;;;;;;3.30;1.60;;;1.10;99.90;;;;;;5051875;28;20205;-47
2023/03/16 03:51:29;;;;;;;2.43;1.37;;;1.10;99.90;;;;;;5044379;28;20580;-45
2023/03/16 03:53:58;;;;;;;2.37;1.63;;;1.10;99.90;;;;;;5043829;28;20220;-47
2023/03/16 03:56:26;;;;;;;2.20;1.50;;;1.10;99.90;;;;;;5042637;28;20196;-47
2023/03/16 03:58:53;;;;;;;2.33;1.53;;;1.10;99.90;;;;;;5050158;28;20296;-47
2023/03/16 04:01:20;;;;;;;2.00;1.90;;;1.10;99.90;;;;;;5044171;28;20201;-47
2023/03/16 04:03:47;;;;;;;1.57;1.47;;;1.10;99.90;;;;;;5052273;28;20311;-49
2023/03/16 04:06:14;;;;;;;3.13;1.43;;;1.00;99.90;;;;;;5045862;28;20215;-46
2023/03/16 04:08:41;;;;;;;2.00;1.90;;;1.00;99.90;;;;;;5048140;28;20261;-47
2023/03/16 04:11:10;;;;;;;5.57;4.63;;;1.00;99.90;;;;;;5052379;28;20248;-46
2023/03/16 04:13:37;;;;;;;4.97;4.67;;;1.00;99.90;;;;;;5051222;28;20309;-47
2023/03/16 04:16:05;;;;;;;4.60;4.40;;;1.00;99.90;;;;;;5049310;28;20658;-47
2023/03/16 04:18:37;;;;;;;3.73;3.43;;;1.00;99.90;;;;;;5050847;28;20207;-47
2023/03/16 04:21:06;;;;;;;5.07;3.47;;;0.90;99.90;;;;;;5046975;28;20211;-46
2023/03/16 04:23:33;;;;;;;4.57;4.13;;;0.90;99.90;;;;;;5048836;28;20307;-46
2023/03/16 04:26:01;;;;;;;5.00;4.30;;;0.90;99.90;;;;;;5050803;28;20211;-47
2023/03/16 04:28:29;;;;;;;4.80;3.73;;;0.90;99.90;;;;;;5043827;28;20207;-47
2023/03/16 04:31:00;;;;;;;5.83;5.43;;;0.90;99.90;;;;;;5050263;28;20268;-46
2023/03/16 04:33:28;;;;;;;5.67;3.80;;;0.80;99.90;;;;;;5051879;28;20644;-46
2023/03/16 04:35:54;;;;;;;9.50;7.80;;;0.80;99.90;;;;;;5052040;28;20195;-48
2023/03/16 04:38:21;;;;;;;13.00;11.67;;;0.80;99.90;;;;;;5054965;28;20198;-48
2023/03/16 04:40:48;;;;;;;13.20;9.60;;;0.80;99.90;;;;;;5053079;28;20199;-49
2023/03/16 04:43:15;;;;;;;6.00;5.30;;;0.70;99.90;;;;;;5050303;28;20219;-47
2023/03/16 04:45:44;;;;;;;5.43;4.93;;;0.70;99.90;;;;;;5056784;28;20231;-47
2023/03/16 04:48:11;;;;;;;13.67;12.47;;;0.70;99.90;;;;;;5052114;28;20203;-47
2023/03/16 04:50:38;;;;;;;7.07;5.30;;;0.70;99.90;;;;;;5042776;28;20205;-48
2023/03/16 04:53:05;;;;;;;2.30;2.20;;;0.70;99.90;;;;;;5051841;28;20253;-47
2023/03/16 04:55:32;;;;;;;2.33;2.23;;;0.80;99.90;;;;;;5051782;28;20256;-47
2023/03/16 04:58:00;;;;;;;2.50;2.30;;;0.80;99.90;;;;;;5052122;28;20260;-47
2023/03/16 05:00:27;;;;;;;5.57;4.93;;;0.80;99.90;;;;;;5051196;28;20207;-47
2023/03/16 05:02:55;;;;;;;4.10;2.60;;;0.80;99.90;;;;;;5050854;28;20221;-47
2023/03/16 05:05:22;;;;;;;3.97;2.50;;;0.70;99.90;;;;;;5050729;28;20203;-48
2023/03/16 05:07:50;;;;;;;6.87;6.27;;;0.70;99.90;;;;;;5054379;28;20262;-47
2023/03/16 05:10:19;;;;;;;3.70;3.30;;;0.60;99.90;;;;;;5047059;28;20205;-47
2023/03/16 05:12:46;;;;;;;3.10;2.17;;;0.60;99.90;;;;;;5055963;28;20272;-47
2023/03/16 05:15:13;;;;;;;10.23;5.43;;;0.60;99.90;;;;;;5054845;28;20206;-47
2023/03/16 05:17:41;;;;;;;2.90;2.70;;;0.60;99.90;;;;;;5051044;28;20289;-46
2023/03/16 05:20:12;;;;;;;3.00;2.80;;;0.60;99.90;;;;;;5055464;28;20254;-45
2023/03/16 05:22:40;;;;;;;3.80;1.67;;;0.60;99.90;;;;;;5047104;28;20200;-48
2023/03/16 05:25:08;;;;;;;1.83;1.40;;;0.70;99.90;;;;;;5055829;28;20202;-47
2023/03/16 05:27:35;;;;;;;2.30;1.33;;;0.70;99.90;;;;;;5050533;28;20287;-46
2023/03/16 05:30:02;;;;;;;2.70;1.57;;;0.70;99.90;;;;;;5055642;28;20572;-47
2023/03/16 05:32:30;;;;;;;1.93;1.77;;;0.70;99.90;;;;;;5055433;28;20724;-47
2023/03/16 05:34:57;;;;;;;2.90;1.87;;;0.80;99.90;;;;;;5052134;28;20198;-48
2023/03/16 05:37:25;;;;;;;2.80;2.17;;;0.80;99.90;;;;;;5055276;28;20207;-47
2023/03/16 05:39:52;;;;;;;6.90;4.60;;;0.80;99.90;;;;;;5053606;28;20233;-47
2023/03/16 05:42:19;;;;;;;5.10;2.83;;;0.80;99.90;;;;;;5046134;28;20199;-47
2023/03/16 05:44:46;;;;;;;2.73;1.70;;;0.90;99.90;;;;;;5053187;28;20219;-46
2023/03/16 05:47:13;;;;;;;2.53;2.33;;;0.90;99.90;;;;;;5050191;28;20269;-46
2023/03/16 05:49:40;;;;;;;2.20;1.23;;;0.90;99.90;;;;;;5050609;28;20210;-47
2023/03/16 05:52:07;;;;;;;5.27;3.87;;;0.90;99.90;;;;;;5051892;28;20624;-48
2023/03/16 05:54:36;;;;;;;6.10;2.27;;;0.90;99.90;;;;;;5054769;28;20219;-49
2023/03/16 05:57:05;;;;;;;2.87;2.07;;;0.90;99.90;;;;;;5046088;28;20252;-47
2023/03/16 05:59:32;;;;;;;2.73;1.90;;;1.00;99.90;;;;;;5054752;28;20232;-48
2023/03/16 06:01:59;;;;;;;2.67;1.83;;;1.10;99.90;;;;;;5051901;28;20212;-47
2023/03/16 06:04:26;;;;;;;10.17;3.70;;;1.00;99.90;;;;;;5050423;28;20271;-46
2023/03/16 06:06:53;;;;;;;5.40;3.40;;;1.10;99.90;;;;;;5052485;28;20224;-48
2023/03/16 06:09:20;;;;;;;4.97;3.73;;;1.30;99.90;;;;;;5051054;28;20201;-48
2023/03/16 06:11:48;;;;;;;3.53;1.97;;;1.30;99.90;;;;;;5052623;28;20200;-45
2023/03/16 06:14:15;;;;;;;2.63;2.50;;;1.40;99.90;;;;;;5054973;28;20222;-47
2023/03/16 06:16:42;;;;;;;3.40;2.10;;;1.40;99.90;;;;;;5049423;28;20200;-47
2023/03/16 06:19:09;;;;;;;3.53;2.20;;;1.50;99.90;;;;;;5053709;28;20252;-46
2023/03/16 06:21:36;;;;;;;1.93;1.73;;;1.60;99.90;;;;;;5052426;28;20258;-46
2023/03/16 06:24:03;;;;;;;3.33;1.37;;;1.60;99.90;;;;;;5054078;28;20786;-47
2023/03/16 06:26:30;;;;;;;1.83;1.43;;;1.50;99.90;;;;;;5054549;28;20222;-48
2023/03/16 06:28:58;;;;;;;3.50;1.20;;;1.70;99.90;;;;;;5055452;28;20273;-46
2023/03/16 06:31:25;;;;;;;6.07;2.00;;;2.60;99.90;;;;;;5051671;28;20195;-45
2023/03/16 06:33:52;;;;;;;5.83;1.73;;;3.90;99.90;;;;;;5050186;28;20297;-45
2023/03/16 06:36:20;;;;;;;3.43;1.63;;;5.10;99.90;;;;;;5049215;28;20199;-47
2023/03/16 06:38:47;;;;;;;5.03;1.80;;;6.30;99.90;;;;;;5054157;28;20207;-48
2023/03/16 06:41:14;;;;;;;2.50;0.80;;;6.90;99.90;;;;;;5049120;28;20204;-46
2023/03/16 06:43:41;;;;;;;2.47;1.20;;;7.00;99.90;;;;;;5051707;28;20227;-46
2023/03/16 06:46:10;;;;;;;0.90;0.90;;;7.60;99.90;;;;;;5052637;28;20219;-47
2023/03/16 06:48:55;;;;;;;1.20;1.07;;;7.50;99.90;;;;;;5053936;28;20625;-47
2023/03/16 06:51:22;;;;;;;3.80;1.23;;;7.60;99.90;;;;;;5053993;28;20186;-47
2023/03/16 06:53:49;;;;;;;1.40;0.97;;;7.50;99.90;;;;;;5052321;28;20222;-47
2023/03/16 06:56:16;;;;;;;1.63;1.10;;;7.70;99.90;;;;;;5059175;28;20200;-47
2023/03/16 06:58:43;;;;;;;0.50;0.40;;;7.80;99.90;;;;;;5053839;28;20194;-47
2023/03/16 07:01:12;;;;;;;2.90;1.00;;;7.90;99.90;;;;;;5052500;28;20257;-45
2023/03/16 07:03:40;;;;;;;5.40;1.00;;;7.90;99.90;;;;;;5045588;28;20702;-47
2023/03/16 07:06:08;;;;;;;3.00;1.33;;;7.90;99.90;;;;;;5053054;28;20227;-48
2023/03/16 07:08:35;;;;;;;1.13;0.63;;;7.90;99.90;;;;;;5049266;28;20214;-46
2023/03/16 07:11:02;;;;;;;0.70;0.70;;;7.60;99.90;;;;;;5052067;28;20200;-48
2023/03/16 07:13:30;;;;;;;1.43;1.07;;;7.30;99.90;;;;;;5053247;28;20215;-46
2023/03/16 07:15:57;;;;;;;1.83;0.90;;;6.90;99.90;;;;;;5052061;28;20196;-47
2023/03/16 07:18:25;;;;;;;3.30;1.23;;;6.80;99.90;;;;;;5052843;28;20694;-46
2023/03/16 07:20:53;;;;;;;2.77;2.33;;;6.90;99.90;;;;;;5051064;28;20205;-48
2023/03/16 07:23:20;;;;;;;1.87;1.67;;;7.20;99.90;;;;;;5048369;28;20231;-47
2023/03/16 07:25:47;;;;;;;3.90;2.00;;;7.60;99.90;;;;;;5043061;28;20246;-47
2023/03/16 07:28:14;;;;;;;2.40;1.83;;;7.90;99.90;;;;;;5048154;28;20601;-48
2023/03/16 07:30:41;;;;;;;2.50;2.00;;;7.60;99.90;;;;;;5052803;28;20562;-47
2023/03/16 07:33:08;;;;;;;2.00;1.73;;;7.60;99.90;;;;;;5049731;28;20612;-46
2023/03/16 07:35:36;;;;;;;6.87;1.30;;;7.50;99.90;;;;;;5043195;28;20204;-47
2023/03/16 07:38:03;;;;;;;3.43;1.00;;;7.30;99.90;;;;;;5052251;28;20192;-46
2023/03/16 07:40:30;;;;;;;2.97;1.17;;;7.30;99.90;;;;;;5052196;28;20191;-47
2023/03/16 07:42:57;;;;;;;1.40;0.50;;;7.50;99.90;;;;;;5052402;28;20209;-46
2023/03/16 07:45:24;;;;;;;0.63;0.47;;;7.80;99.90;;;;;;5048970;28;20207;-48
2023/03/16 07:47:54;;;;;;;0.30;0.30;;;8.10;99.90;;;;;;5048064;28;20231;-47
2023/03/16 07:50:22;;;;;;;0.97;0.23;;;8.50;99.90;;;;;;5047524;28;20200;-47
2023/03/16 07:52:54;;;;;;;0.40;0.40;;;8.70;99.90;;;;;;5052018;28;20277;-47
2023/03/16 07:55:21;;;;;;;2.63;0.27;;;9.10;99.90;;;;;;5052037;28;20191;-46
2023/03/16 07:57:48;;;;;;;2.27;0.50;;;9.30;99.90;;;;;;5052455;28;20738;-47
2023/03/16 08:00:16;;;;;;;1.67;0.57;;;9.80;99.90;;;;;;5051852;28;20231;-47
2023/03/16 08:02:43;;;;;;;0.40;0.40;;;10.30;99.90;;;;;;5051137;28;20783;-46
2023/03/16 08:05:11;;;;;;;1.13;0.40;;;10.90;99.90;;;;;;5051964;28;20210;-47
2023/03/16 08:07:38;;;;;;;1.23;0.30;;;11.00;99.90;;;;;;5048793;28;20315;-47
2023/03/16 08:10:08;;;;;;;0.80;0.23;;;11.10;99.90;;;;;;5051884;28;20580;-47
2023/03/16 08:12:35;;;;;;;0.30;0.30;;;11.00;99.90;;;;;;5053051;28;20593;-46
2023/03/16 08:15:02;;;;;;;0.50;0.40;;;10.90;99.90;;;;;;5051765;28;20209;-46
2023/03/16 08:17:29;;;;;;;1.10;0.40;;;11.10;99.90;;;;;;5052270;28;20203;-47
2023/03/16 08:19:56;;;;;;;2.10;0.47;;;11.20;99.90;;;;;;5051345;28;20212;-47
2023/03/16 08:22:23;;;;;;;2.30;0.60;;;11.20;99.40;;;;;;5052221;28;20253;-47
2023/03/16 08:24:50;;;;;;;1.00;0.47;;;11.60;98.20;;;;;;5051746;28;20210;-47
2023/03/16 08:27:19;;;;;;;0.93;0.57;;;12.10;98.70;;;;;;5051708;28;20226;-46
2023/03/16 08:29:46;;;;;;;1.97;0.40;;;12.50;99.00;;;;;;5045430;28;20201;-46
2023/03/16 08:32:13;;;;;;;0.60;0.40;;;12.60;98.20;;;;;;5048040;28;20555;-49
2023/03/16 08:34:40;;;;;;;1.43;0.40;;;12.20;98.40;;;;;;5051247;28;20609;-47
2023/03/16 08:37:08;;;;;;;1.20;0.43;;;12.50;97.70;;;;;;5041889;28;20271;-46
2023/03/16 08:39:35;;;;;;;1.87;0.77;;;13.30;97.70;;;;;;5040833;28;20304;-48
2023/03/16 08:42:03;;;;;;;0.47;0.30;;;13.80;96.10;;;;;;5027954;28;20202;-47
2023/03/16 08:44:31;;;;;;;2.87;0.37;;;13.80;95.50;;;;;;5029317;28;20231;-46
2023/03/16 08:46:58;;;;;;;3.10;0.63;;;14.40;96.00;;;;;;5038912;28;20751;-47
2023/03/16 08:49:26;;;;;;;0.77;0.70;;;14.50;93.70;;;;;;5042223;28;20533;-47
2023/03/16 08:51:53;;;;;;;0.83;0.50;;;14.70;93.00;;;;;;5050447;28;20222;-48
2023/03/16 08:54:21;;;;;;;0.50;0.40;;;15.40;92.30;;;;;;5044705;28;20303;-47
2023/03/16 08:56:48;;;;;;;5.27;0.70;;;15.40;91.30;;;;;;5040257;28;20262;-48
2023/03/16 08:59:15;;;;;;;0.60;0.40;;;15.50;91.00;;;;;;5033463;28;20664;-45
2023/03/16 09:01:44;;;;;;;2.73;0.77;;;16.10;88.60;;;;;;5038710;28;20204;-46
2023/03/16 09:04:11;;;;;;;0.60;0.33;;;16.20;90.20;;;;;;5039219;28;20256;-48
2023/03/16 09:06:38;;;;;;;0.40;0.40;;;16.80;88.10;;;;;;5037300;28;20206;-49
2023/03/16 09:09:06;;;;;;;1.70;0.27;;;16.50;82.10;;;;;;5042166;28;20308;-48
2023/03/16 09:11:33;;;;;;;1.70;0.60;;;16.50;82.20;;;;;;5050121;28;20247;-46
2023/03/16 09:14:00;;;;;;;0.40;0.40;;;15.80;82.20;;;;;;5039903;28;20221;-47
2023/03/16 09:16:29;;;;;;;0.40;0.30;;;15.40;86.30;;;;;;5048284;28;20284;-49
2023/03/16 09:18:57;;;;;;;0.57;0.57;;;15.80;80.60;;;;;;5048327;28;20202;-48
2023/03/16 09:21:25;;;;;;;0.97;0.37;;;15.80;79.70;;;;;;5041808;28;20244;-47
2023/03/16 09:23:53;;;;;;;0.40;0.30;;;16.10;84.10;;;;;;5043951;28;20456;-47
2023/03/16 09:26:20;;;;;;;1.50;0.30;;;16.10;82.70;;;;;;5042618;28;20604;-47
2023/03/16 09:28:48;;;;;;;0.30;0.30;;;16.00;80.00;;;;;;5044132;28;20225;-48
2023/03/16 09:31:17;;;;;;;1.50;0.20;;;15.60;78.80;;;;;;5035888;28;20205;-46
2023/03/16 09:33:45;;;;;;;1.90;0.30;;;14.60;76.50;;;;;;5042490;28;20233;-48
2023/03/16 09:36:14;;;;;;;0.23;0.23;;;14.50;80.20;;;;;;5046105;28;20205;-46
2023/03/16 09:38:42;;;;;;;2.83;0.20;;;14.70;76.60;;;;;;5040092;28;20268;-48
2023/03/16 09:41:17;;;;;;;0.40;0.20;;;15.00;78.60;;;;;;5044914;28;20212;-47
2023/03/16 09:43:56;;;;;;;0.30;0.30;;;15.40;83.00;;;;;;5046031;28;20775;-48
2023/03/16 09:46:27;;;;;;;0.30;0.30;;;15.30;79.60;;;;;;5042777;28;20202;-47
2023/03/16 09:48:56;;;;;;;0.50;0.20;;;15.00;75.70;;;;;;5040551;28;20293;-48
2023/03/16 09:51:37;;;;;;;0.80;0.30;;;14.90;81.50;;;;;;5050343;28;20267;-47
2023/03/16 09:54:14;;;;;;;0.13;0.13;;;14.70;78.90;;;;;;5040752;28;20251;-47
2023/03/16 09:56:43;;;;;;;3.60;0.30;;;14.40;77.90;;;;;;5043785;28;20200;-47
2023/03/16 09:59:12;;;;;;;0.20;0.20;;;14.70;81.20;;;;;;5045971;28;20205;-48
2023/03/16 10:01:50;;;;;;;0.67;0.30;;;14.60;79.40;;;;;;5054440;28;20210;-48
2023/03/16 10:04:33;;;;;;;0.50;0.30;;;14.90;79.00;;;;;;5053396;28;20278;-47
2023/03/16 10:07:12;;;;;;;0.40;0.40;;;15.40;76.70;;;;;;5051017;28;22595;-47
2023/03/16 10:09:46;;;;;;;0.60;0.10;;;15.60;75.90;;;;;;5053485;28;20205;-48
2023/03/16 10:12:15;;;;;;;0.30;0.30;;;16.00;78.10;;;;;;5052388;28;20398;-48
2023/03/16 10:14:49;;;;;;;0.23;0.20;;;16.30;78.30;;;;;;5050916;28;20225;-46
2023/03/16 10:17:19;;;;;;;0.10;0.10;;;16.60;79.60;;;;;;5048563;28;20574;-47
2023/03/16 10:19:51;;;;;;;0.40;0.27;;;17.00;76.90;;;;;;5053442;28;20202;-47
2023/03/16 10:22:22;;;;;;;0.40;0.30;;;17.00;73.50;;;;;;5053095;28;20224;-46
2023/03/16 10:24:57;;;;;;;0.50;0.30;;;17.00;70.20;;;;;;5051141;28;20224;-47
2023/03/16 10:27:28;;;;;;;1.27;0.50;;;17.00;71.30;;;;;;5050788;28;20699;-46
2023/03/16 10:29:56;;;;;;;3.20;0.40;;;16.90;77.30;;;;;;5050957;28;20198;-46
2023/03/16 10:32:27;;;;;;;0.40;0.40;;;16.70;71.80;;;;;;5052564;28;20266;-46
2023/03/16 10:35:00;;;;;;;0.40;0.23;;;16.40;72.00;;;;;;5051373;28;20251;-47
2023/03/16 10:37:31;;;;;;;0.73;0.20;;;16.60;77.70;;;;;;5053199;28;20198;-47
2023/03/16 10:39:59;;;;;;;1.00;0.40;;;16.30;74.50;;;;;;5048536;28;20279;-48
2023/03/16 10:42:27;;;;;;;0.40;0.40;;;16.50;79.90;;;;;;5041424;28;20209;-45
2023/03/16 10:44:57;;;;;;;1.43;0.40;;;16.70;73.20;;;;;;5044118;28;20255;-46
2023/03/16 10:47:29;;;;;;;1.03;0.20;;;16.50;71.50;;;;;;5051675;28;20213;-46
2023/03/16 10:49:55;;;;;;;0.73;0.47;;;17.10;69.70;;;;;;5048750;28;20198;-45
2023/03/16 10:52:28;;;;;;;0.60;0.43;;;16.50;69.30;;;;;;5048371;28;20259;-46
2023/03/16 10:54:59;;;;;;;2.00;0.37;;;16.00;73.90;;;;;;5043366;28;20331;-47
2023/03/16 10:57:30;;;;;;;1.90;0.43;;;16.00;68.60;;;;;;5049203;28;20618;-46
2023/03/16 11:00:05;;;;;;;1.83;0.57;;;15.80;73.30;;;;;;5049396;28;20599;-46
2023/03/16 11:02:34;;;;;;;0.30;0.30;;;15.70;74.20;;;;;;5046457;28;20221;-46
2023/03/16 11:05:13;;;;;;;0.20;0.20;;;15.30;69.30;;;;;;5042865;28;20676;-46
2023/03/16 11:07:47;;;;;;;0.20;0.20;;;15.00;76.80;;;;;;5043973;28;20718;-46
2023/03/16 11:10:26;;;;;;;1.87;0.30;;;15.00;68.50;;;;;;5047757;28;20252;-46
2023/03/16 11:12:55;;;;;;;1.30;0.30;;;14.90;68.70;;;;;;5048847;28;20313;-48
2023/03/16 11:15:22;;;;;;;0.40;0.20;;;15.00;76.00;;;;;;5052443;28;20198;-48
2023/03/16 11:17:53;;;;;;;0.13;0.13;;;14.80;75.30;;;;;;5050902;28;20202;-46
2023/03/16 11:20:25;;;;;;;0.40;0.20;;;14.50;77.10;;;;;;5051523;28;20667;-47
2023/03/16 11:22:55;;;;;;;1.33;0.23;;;14.50;71.90;;;;;;5034830;28;20233;-48
2023/03/16 11:25:29;;;;;;;0.23;0.20;;;14.50;70.90;;;;;;5051047;28;20549;-47
2023/03/16 11:28:07;;;;;;;1.90;0.40;;;14.10;75.00;;;;;;5050605;28;20643;-48
2023/03/16 11:30:39;;;;;;;0.20;0.20;;;14.10;70.80;;;;;;5051960;28;20201;-47
2023/03/16 11:33:11;;;;;;;0.33;0.33;;;14.10;69.90;;;;;;5043747;28;20222;-48
2023/03/16 11:35:47;;;;;;;0.50;0.50;;;14.10;69.90;;;;;;5041099;28;20206;-47
2023/03/16 11:38:18;;;;;;;0.00;0.00;;;13.80;73.20;;;;;;5045582;28;20189;-47
2023/03/16 11:40:54;;;;;;;3.87;0.40;;;13.70;72.70;;;;;;5046959;28;20599;-47
2023/03/16 11:43:54;;;;;;;0.53;0.20;;;13.80;70.60;;;;;;5043207;28;20717;-47
2023/03/16 11:46:24;;;;;;;0.20;0.20;;;13.60;70.70;;;;;;5042474;28;20212;-46
2023/03/16 11:49:01;;;;;;;1.70;0.20;;;13.60;68.90;;;;;;5047095;28;20253;-47
2023/03/16 11:51:40;;;;;;;0.20;0.20;;;13.60;68.70;;;;;;5040944;28;20213;-46
2023/03/16 11:54:32;;;;;;;0.50;0.20;;;13.40;70.90;;;;;;5040558;28;20455;-47
2023/03/16 11:57:07;;;;;;;0.30;0.20;;;13.40;72.60;;;;;;5043675;28;20228;-48
2023/03/16 11:59:57;;;;;;;0.20;0.20;;;13.40;69.10;;;;;;5040772;28;20204;-48
2023/03/16 12:02:56;;;;;;;1.27;0.30;;;13.20;71.40;;;;;;5041361;28;20208;-46
2023/03/16 12:05:47;;;;;;;0.30;0.30;;;13.20;72.40;;;;;;5036742;28;20198;-47
2023/03/16 12:08:44;;;;;;;0.70;0.70;;;13.50;72.60;;;;;;5039920;28;20222;-47
2023/03/16 12:11:15;;;;;;;1.27;1.17;;;13.50;85.30;;;;;;5040056;28;20204;-49
2023/03/16 12:13:59;;;;;;;0.80;0.80;;;13.40;86.90;;;;;;5042211;28;20228;-48
2023/03/16 12:16:29;;;;;;;1.37;1.10;;;13.20;90.20;;;;;;5039183;28;20202;-46
2023/03/16 12:19:01;;;;;;;0.80;0.80;;;12.50;91.90;;;;;;5037741;28;20194;-46
2023/03/16 12:21:32;;;;;;;1.27;0.63;;;12.50;94.20;;;;;;5038800;28;20205;-47
2023/03/16 12:24:03;;;;;;;2.03;1.23;;;12.30;93.50;;;;;;5043379;28;20227;-47
2023/03/16 12:26:34;;;;;;;0.80;0.70;;;12.30;94.50;;;;;;5043556;28;20284;-46
2023/03/16 12:29:08;;;;;;;0.67;0.67;;;12.40;93.00;;;;;;5043875;28;20220;-48
2023/03/16 12:31:44;;;;;;;0.80;0.73;;;12.60;91.40;;;;;;5051015;28;20261;-47
2023/03/16 12:34:23;;;;;;;1.00;0.80;;;12.80;91.90;;;;;;5044065;28;20273;-48
2023/03/16 12:37:09;;;;;;;0.57;0.57;;;12.80;93.80;;;;;;5050248;28;20294;-48
2023/03/16 12:39:55;;;;;;;0.60;0.60;;;12.80;92.20;;;;;;5050642;28;20701;-47
2023/03/16 12:42:35;;;;;;;0.40;0.40;;;12.90;90.60;;;;;;5051189;28;20205;-47
2023/03/16 12:45:07;;;;;;;0.70;0.40;;;13.00;92.20;;;;;;5045277;28;20204;-47
2023/03/16 12:47:45;;;;;;;1.00;0.40;;;13.00;93.30;;;;;;5050147;28;20199;-47
2023/03/16 12:50:15;;;;;;;0.63;0.50;;;12.90;92.50;;;;;;5046594;28;20210;-47
2023/03/16 12:52:43;;;;;;;0.40;0.40;;;12.80;92.20;;;;;;5041037;28;20294;-47
2023/03/16 12:55:15;;;;;;;0.83;0.30;;;12.80;93.30;;;;;;5049665;28;20200;-47
2023/03/16 12:57:43;;;;;;;1.20;0.50;;;12.70;91.30;;;;;;5050853;28;20204;-47
2023/03/16 13:00:14;;;;;;;1.67;0.40;;;12.60;89.10;;;;;;5050894;28;20224;-48
2023/03/16 13:02:45;;;;;;;1.13;0.50;;;12.80;91.60;;;;;;5050626;28;20263;-47
2023/03/16 13:05:15;;;;;;;2.13;0.90;;;12.80;91.80;;;;;;5047765;28;22033;-48
2023/03/16 13:07:50;;;;;;;0.43;0.43;;;12.80;90.70;;;;;;5044788;28;20201;-47